Terminal Aerodrome Forecast
Issued by NWS Rapid City, SD

Home | Current Version | Previous Version | Graphics & Text | Print | Product List | Glossary On
Versions: 1 2 3 4 5 6 7 8 9 10 11 12 13 14 15 16 17 18 19 20
085
FTUS43 KUNR 151430 AAA
TAFRAP
TAF AMD
KRAP 151430Z 1515/1612 36008KT P6SM -SHRA BKN007 OVC100
     FM151800 35015KT P6SM BKN060
      TEMPO 1518/1522 -TSRA BKN040CB=

USA.gov is the U.S. government's official web portal to all federal, state and local government web resources and services.